Delta Ios — SVAK9 — position and weather

sailwx.info

Track history (hours):
 
Tides and Currents Weather Stations Pressure Air Temp Water Temp Dewpoint Dewpoint Depression Visibility Wind Speed Wind Dir Waves Ship Positions

Delta Ios

Last reported at 2015-Feb-08 00:09 UTC. Time now 2015-Feb-27 04:07 UTC.
Position N 07°41' W 016°09'.
Warning: this ship's position is 19 days out of date.

Length 276 m; draft 13 m.

Type: Ship (hazmat cat C). MMSI: 240821000.

Date/timePositionNaut miles runAvg speedWind from/ knotsBaromVisibWave heightAir tempDewpointWater temp
2015-Feb-08 00:09N 07°41' W 016°09'7611.5
2015-Feb-07 17:32N 08°44' W 016°51'1411.4
2015-Feb-07 16:20N 08°56' W 016°58'911.1
2015-Feb-07 15:33N 09°03' W 017°02'1411.3
2015-Feb-07 14:20N 09°15' W 017°09'911.4
2015-Feb-07 13:33N 09°23' W 017°14'1111.5
2015-Feb-07 12:33N 09°33' W 017°20'1311.1
2015-Feb-07 11:26N 09°44' W 017°26'6911.0
2015-Feb-07 05:12N 10°49' W 017°46'3011.2
2015-Feb-07 02:32N 11°19' W 017°50'  
Track history (hours):
 
Tides and Currents Weather Stations Pressure Air Temp Water Temp Dewpoint Dewpoint Depression Visibility Wind Speed Wind Dir Waves Ship Positions

Delta Ios

Last reported at 2015-Feb-08 00:09 UTC. Time now 2015-Feb-27 04:07 UTC.
Position N 07°41' W 016°09'.
Warning: this ship's position is 19 days out of date.

Length 276 m; draft 13 m.

Type: Ship (hazmat cat C). MMSI: 240821000.

Date/timePositionNaut miles runAvg speedWind from/ knotsBaromVisibWave heightAir tempDewpointWater temp
2015-Feb-08 00:09N 07°41' W 016°09'7611.5
2015-Feb-07 17:32N 08°44' W 016°51'1411.4
2015-Feb-07 16:20N 08°56' W 016°58'911.1
2015-Feb-07 15:33N 09°03' W 017°02'1411.3
2015-Feb-07 14:20N 09°15' W 017°09'911.4
2015-Feb-07 13:33N 09°23' W 017°14'1111.5
2015-Feb-07 12:33N 09°33' W 017°20'1311.1
2015-Feb-07 11:26N 09°44' W 017°26'6911.0
2015-Feb-07 05:12N 10°49' W 017°46'3011.2
2015-Feb-07 02:32N 11°19' W 017°50'  

Dump ship's entire track history